sensor_id;sensor_type;location;lat;lon;timestamp;P1;durP1;ratioP1;P2;durP2;ratioP2
22388;SDS011;11362;48.102;11.620;2023-05-07T00:02:19;2.03;;;1.50;;
22388;SDS011;11362;48.102;11.620;2023-05-07T00:04:44;1.70;;;1.60;;
22388;SDS011;11362;48.102;11.620;2023-05-07T00:07:09;2.00;;;1.90;;
22388;SDS011;11362;48.102;11.620;2023-05-07T00:09:35;1.60;;;1.50;;
22388;SDS011;11362;48.102;11.620;2023-05-07T00:12:01;2.17;;;1.70;;
22388;SDS011;11362;48.102;11.620;2023-05-07T00:14:26;1.60;;;1.50;;
22388;SDS011;11362;48.102;11.620;2023-05-07T00:16:51;1.73;;;1.50;;
22388;SDS011;11362;48.102;11.620;2023-05-07T00:19:17;1.57;;;1.50;;
22388;SDS011;11362;48.102;11.620;2023-05-07T00:21:42;1.97;;;1.50;;
22388;SDS011;11362;48.102;11.620;2023-05-07T00:24:07;2.70;;;1.67;;
22388;SDS011;11362;48.102;11.620;2023-05-07T00:26:32;2.00;;;1.67;;
22388;SDS011;11362;48.102;11.620;2023-05-07T00:28:58;1.70;;;1.60;;
22388;SDS011;11362;48.102;11.620;2023-05-07T00:31:23;1.50;;;1.40;;
22388;SDS011;11362;48.102;11.620;2023-05-07T00:33:48;2.07;;;1.93;;
22388;SDS011;11362;48.102;11.620;2023-05-07T00:36:13;1.80;;;1.70;;
22388;SDS011;11362;48.102;11.620;2023-05-07T00:38:39;1.70;;;1.60;;
22388;SDS011;11362;48.102;11.620;2023-05-07T00:41:04;1.50;;;1.40;;
22388;SDS011;11362;48.102;11.620;2023-05-07T00:43:29;1.73;;;1.63;;
22388;SDS011;11362;48.102;11.620;2023-05-07T00:45:55;1.43;;;1.40;;
22388;SDS011;11362;48.102;11.620;2023-05-07T00:48:20;1.53;;;1.40;;
22388;SDS011;11362;48.102;11.620;2023-05-07T00:50:46;1.70;;;1.60;;
22388;SDS011;11362;48.102;11.620;2023-05-07T00:53:11;1.27;;;1.17;;
22388;SDS011;11362;48.102;11.620;2023-05-07T00:55:37;1.60;;;1.47;;
22388;SDS011;11362;48.102;11.620;2023-05-07T00:58:02;1.50;;;1.40;;
22388;SDS011;11362;48.102;11.620;2023-05-07T01:00:28;2.03;;;1.63;;
22388;SDS011;11362;48.102;11.620;2023-05-07T01:02:53;1.60;;;1.50;;
22388;SDS011;11362;48.102;11.620;2023-05-07T01:05:19;1.67;;;1.57;;
22388;SDS011;11362;48.102;11.620;2023-05-07T01:07:46;1.70;;;1.60;;
22388;SDS011;11362;48.102;11.620;2023-05-07T01:10:12;1.60;;;1.50;;
22388;SDS011;11362;48.102;11.620;2023-05-07T01:12:37;1.40;;;1.30;;
22388;SDS011;11362;48.102;11.620;2023-05-07T01:15:05;1.73;;;1.63;;
22388;SDS011;11362;48.102;11.620;2023-05-07T01:17:35;1.40;;;1.30;;
22388;SDS011;11362;48.102;11.620;2023-05-07T01:20:02;1.40;;;1.30;;
22388;SDS011;11362;48.102;11.620;2023-05-07T01:22:32;1.87;;;1.77;;
22388;SDS011;11362;48.102;11.620;2023-05-07T01:24:58;1.83;;;1.20;;
22388;SDS011;11362;48.102;11.620;2023-05-07T01:27:24;1.60;;;1.40;;
22388;SDS011;11362;48.102;11.620;2023-05-07T01:29:49;3.67;;;1.63;;
22388;SDS011;11362;48.102;11.620;2023-05-07T01:32:14;1.90;;;1.10;;
22388;SDS011;11362;48.102;11.620;2023-05-07T01:34:43;1.80;;;1.27;;
22388;SDS011;11362;48.102;11.620;2023-05-07T01:37:11;1.77;;;1.60;;
22388;SDS011;11362;48.102;11.620;2023-05-07T01:39:37;1.23;;;1.20;;
22388;SDS011;11362;48.102;11.620;2023-05-07T01:42:04;1.40;;;1.40;;
22388;SDS011;11362;48.102;11.620;2023-05-07T01:44:30;1.77;;;1.67;;
22388;SDS011;11362;48.102;11.620;2023-05-07T01:46:56;1.50;;;1.40;;
22388;SDS011;11362;48.102;11.620;2023-05-07T01:49:22;3.00;;;1.50;;
22388;SDS011;11362;48.102;11.620;2023-05-07T01:51:47;1.47;;;1.40;;
22388;SDS011;11362;48.102;11.620;2023-05-07T01:54:13;2.00;;;1.20;;
22388;SDS011;11362;48.102;11.620;2023-05-07T01:56:38;1.47;;;1.37;;
22388;SDS011;11362;48.102;11.620;2023-05-07T01:59:03;1.23;;;1.23;;
22388;SDS011;11362;48.102;11.620;2023-05-07T02:01:29;1.30;;;1.30;;
22388;SDS011;11362;48.102;11.620;2023-05-07T02:03:54;1.13;;;1.13;;
22388;SDS011;11362;48.102;11.620;2023-05-07T02:06:19;1.60;;;1.50;;
22388;SDS011;11362;48.102;11.620;2023-05-07T02:08:45;1.30;;;1.30;;
22388;SDS011;11362;48.102;11.620;2023-05-07T02:11:10;1.60;;;1.30;;
22388;SDS011;11362;48.102;11.620;2023-05-07T02:13:36;1.23;;;1.23;;
22388;SDS011;11362;48.102;11.620;2023-05-07T02:16:01;2.03;;;1.67;;
22388;SDS011;11362;48.102;11.620;2023-05-07T02:18:27;2.00;;;1.53;;
22388;SDS011;11362;48.102;11.620;2023-05-07T02:20:53;1.20;;;1.10;;
22388;SDS011;11362;48.102;11.620;2023-05-07T02:23:18;1.37;;;1.27;;
22388;SDS011;11362;48.102;11.620;2023-05-07T02:25:43;1.30;;;1.30;;
22388;SDS011;11362;48.102;11.620;2023-05-07T02:28:09;1.47;;;1.37;;
22388;SDS011;11362;48.102;11.620;2023-05-07T02:30:34;1.20;;;1.10;;
22388;SDS011;11362;48.102;11.620;2023-05-07T02:33:01;1.63;;;1.53;;
22388;SDS011;11362;48.102;11.620;2023-05-07T02:35:26;1.17;;;1.17;;
22388;SDS011;11362;48.102;11.620;2023-05-07T02:37:52;1.00;;;1.00;;
22388;SDS011;11362;48.102;11.620;2023-05-07T02:40:17;1.23;;;1.23;;
22388;SDS011;11362;48.102;11.620;2023-05-07T02:42:42;1.37;;;1.27;;
22388;SDS011;11362;48.102;11.620;2023-05-07T02:45:08;1.67;;;1.10;;
22388;SDS011;11362;48.102;11.620;2023-05-07T02:47:34;1.50;;;1.40;;
22388;SDS011;11362;48.102;11.620;2023-05-07T02:49:59;1.37;;;1.37;;
22388;SDS011;11362;48.102;11.620;2023-05-07T02:52:24;1.53;;;1.43;;
22388;SDS011;11362;48.102;11.620;2023-05-07T02:54:50;1.60;;;1.43;;
22388;SDS011;11362;48.102;11.620;2023-05-07T02:57:15;1.43;;;1.33;;
22388;SDS011;11362;48.102;11.620;2023-05-07T02:59:41;1.53;;;1.30;;
22388;SDS011;11362;48.102;11.620;2023-05-07T03:02:06;1.50;;;1.40;;
22388;SDS011;11362;48.102;11.620;2023-05-07T03:04:32;1.50;;;1.40;;
22388;SDS011;11362;48.102;11.620;2023-05-07T03:06:57;1.20;;;1.20;;
22388;SDS011;11362;48.102;11.620;2023-05-07T03:09:22;1.50;;;1.40;;
22388;SDS011;11362;48.102;11.620;2023-05-07T03:11:48;2.23;;;1.37;;
22388;SDS011;11362;48.102;11.620;2023-05-07T03:14:13;1.50;;;1.40;;
22388;SDS011;11362;48.102;11.620;2023-05-07T03:16:39;1.43;;;1.33;;
22388;SDS011;11362;48.102;11.620;2023-05-07T03:19:04;1.30;;;1.27;;
22388;SDS011;11362;48.102;11.620;2023-05-07T03:21:29;1.40;;;1.30;;
22388;SDS011;11362;48.102;11.620;2023-05-07T03:23:55;1.33;;;1.20;;
22388;SDS011;11362;48.102;11.620;2023-05-07T03:26:20;1.20;;;1.20;;
22388;SDS011;11362;48.102;11.620;2023-05-07T03:28:45;1.43;;;1.33;;
22388;SDS011;11362;48.102;11.620;2023-05-07T03:31:11;1.00;;;1.00;;
22388;SDS011;11362;48.102;11.620;2023-05-07T03:33:38;1.20;;;1.13;;
22388;SDS011;11362;48.102;11.620;2023-05-07T03:36:14;1.20;;;1.20;;
22388;SDS011;11362;48.102;11.620;2023-05-07T03:38:40;1.37;;;1.27;;
22388;SDS011;11362;48.102;11.620;2023-05-07T03:41:05;1.27;;;1.27;;
22388;SDS011;11362;48.102;11.620;2023-05-07T03:43:30;1.20;;;1.20;;
22388;SDS011;11362;48.102;11.620;2023-05-07T03:45:56;1.47;;;1.47;;
22388;SDS011;11362;48.102;11.620;2023-05-07T03:48:21;1.40;;;1.30;;
22388;SDS011;11362;48.102;11.620;2023-05-07T03:50:46;1.30;;;1.30;;
22388;SDS011;11362;48.102;11.620;2023-05-07T03:53:11;1.53;;;1.43;;
22388;SDS011;11362;48.102;11.620;2023-05-07T03:55:37;1.17;;;1.17;;
22388;SDS011;11362;48.102;11.620;2023-05-07T03:58:02;1.20;;;1.20;;
22388;SDS011;11362;48.102;11.620;2023-05-07T04:00:27;1.03;;;1.03;;
22388;SDS011;11362;48.102;11.620;2023-05-07T04:02:52;1.10;;;1.10;;
22388;SDS011;11362;48.102;11.620;2023-05-07T04:05:18;1.07;;;1.07;;
22388;SDS011;11362;48.102;11.620;2023-05-07T04:07:43;1.90;;;1.30;;
22388;SDS011;11362;48.102;11.620;2023-05-07T04:10:08;1.20;;;1.20;;
22388;SDS011;11362;48.102;11.620;2023-05-07T04:12:34;1.30;;;1.27;;
22388;SDS011;11362;48.102;11.620;2023-05-07T04:14:59;1.00;;;1.00;;
22388;SDS011;11362;48.102;11.620;2023-05-07T04:17:24;1.70;;;1.10;;
22388;SDS011;11362;48.102;11.620;2023-05-07T04:19:50;1.20;;;1.10;;
22388;SDS011;11362;48.102;11.620;2023-05-07T04:22:15;1.20;;;1.10;;
22388;SDS011;11362;48.102;11.620;2023-05-07T04:24:40;1.13;;;1.13;;
22388;SDS011;11362;48.102;11.620;2023-05-07T04:27:06;0.90;;;0.90;;
22388;SDS011;11362;48.102;11.620;2023-05-07T04:29:31;1.40;;;1.30;;
22388;SDS011;11362;48.102;11.620;2023-05-07T04:31:56;1.20;;;1.10;;
22388;SDS011;11362;48.102;11.620;2023-05-07T04:34:22;1.20;;;1.17;;
22388;SDS011;11362;48.102;11.620;2023-05-07T04:36:47;1.33;;;1.23;;
22388;SDS011;11362;48.102;11.620;2023-05-07T04:39:12;1.30;;;1.20;;
22388;SDS011;11362;48.102;11.620;2023-05-07T04:41:37;1.27;;;1.20;;
22388;SDS011;11362;48.102;11.620;2023-05-07T04:44:03;1.20;;;1.10;;
22388;SDS011;11362;48.102;11.620;2023-05-07T04:46:28;0.93;;;0.93;;
22388;SDS011;11362;48.102;11.620;2023-05-07T04:48:53;1.30;;;1.20;;
22388;SDS011;11362;48.102;11.620;2023-05-07T04:51:19;1.03;;;1.03;;
22388;SDS011;11362;48.102;11.620;2023-05-07T04:53:44;1.20;;;1.20;;
22388;SDS011;11362;48.102;11.620;2023-05-07T04:56:09;1.20;;;1.20;;
22388;SDS011;11362;48.102;11.620;2023-05-07T04:58:34;1.10;;;1.10;;
22388;SDS011;11362;48.102;11.620;2023-05-07T05:01:00;1.07;;;1.07;;
22388;SDS011;11362;48.102;11.620;2023-05-07T05:03:25;0.90;;;0.90;;
22388;SDS011;11362;48.102;11.620;2023-05-07T05:05:51;1.00;;;1.00;;
22388;SDS011;11362;48.102;11.620;2023-05-07T05:08:16;1.00;;;1.00;;
22388;SDS011;11362;48.102;11.620;2023-05-07T05:10:41;1.20;;;1.20;;
22388;SDS011;11362;48.102;11.620;2023-05-07T05:13:07;1.20;;;1.10;;
22388;SDS011;11362;48.102;11.620;2023-05-07T05:15:32;1.10;;;1.10;;
22388;SDS011;11362;48.102;11.620;2023-05-07T05:17:57;1.10;;;1.10;;
22388;SDS011;11362;48.102;11.620;2023-05-07T05:20:23;1.30;;;1.30;;
22388;SDS011;11362;48.102;11.620;2023-05-07T05:22:48;0.97;;;0.97;;
22388;SDS011;11362;48.102;11.620;2023-05-07T05:25:13;0.97;;;0.90;;
22388;SDS011;11362;48.102;11.620;2023-05-07T05:27:38;0.80;;;0.80;;
22388;SDS011;11362;48.102;11.620;2023-05-07T05:30:04;0.90;;;0.90;;
22388;SDS011;11362;48.102;11.620;2023-05-07T05:32:29;1.10;;;1.10;;
22388;SDS011;11362;48.102;11.620;2023-05-07T05:34:55;1.17;;;1.10;;
22388;SDS011;11362;48.102;11.620;2023-05-07T05:37:20;0.90;;;0.90;;
22388;SDS011;11362;48.102;11.620;2023-05-07T05:39:45;0.90;;;0.90;;
22388;SDS011;11362;48.102;11.620;2023-05-07T05:42:10;0.80;;;0.80;;
22388;SDS011;11362;48.102;11.620;2023-05-07T05:44:36;1.20;;;1.20;;
22388;SDS011;11362;48.102;11.620;2023-05-07T05:47:01;1.10;;;1.10;;
22388;SDS011;11362;48.102;11.620;2023-05-07T05:49:28;1.30;;;1.20;;
22388;SDS011;11362;48.102;11.620;2023-05-07T05:51:53;1.50;;;1.20;;
22388;SDS011;11362;48.102;11.620;2023-05-07T05:54:18;1.10;;;1.00;;
22388;SDS011;11362;48.102;11.620;2023-05-07T05:56:43;1.63;;;1.10;;
22388;SDS011;11362;48.102;11.620;2023-05-07T05:59:09;1.10;;;1.10;;
22388;SDS011;11362;48.102;11.620;2023-05-07T06:01:35;1.20;;;1.10;;
22388;SDS011;11362;48.102;11.620;2023-05-07T06:04:00;1.00;;;0.87;;
22388;SDS011;11362;48.102;11.620;2023-05-07T06:06:26;1.20;;;1.20;;
22388;SDS011;11362;48.102;11.620;2023-05-07T06:08:51;1.03;;;0.83;;
22388;SDS011;11362;48.102;11.620;2023-05-07T06:11:16;1.00;;;1.00;;
22388;SDS011;11362;48.102;11.620;2023-05-07T06:13:41;0.80;;;0.80;;
22388;SDS011;11362;48.102;11.620;2023-05-07T06:16:07;1.10;;;1.00;;
22388;SDS011;11362;48.102;11.620;2023-05-07T06:18:32;1.10;;;1.10;;
22388;SDS011;11362;48.102;11.620;2023-05-07T06:20:57;2.93;;;1.20;;
22388;SDS011;11362;48.102;11.620;2023-05-07T06:23:23;3.00;;;1.47;;
22388;SDS011;11362;48.102;11.620;2023-05-07T06:25:48;1.90;;;1.30;;
22388;SDS011;11362;48.102;11.620;2023-05-07T06:28:14;5.03;;;1.77;;
22388;SDS011;11362;48.102;11.620;2023-05-07T06:30:40;2.90;;;1.50;;
22388;SDS011;11362;48.102;11.620;2023-05-07T06:33:05;2.53;;;1.10;;
22388;SDS011;11362;48.102;11.620;2023-05-07T06:35:30;3.70;;;1.50;;
22388;SDS011;11362;48.102;11.620;2023-05-07T06:37:55;9.17;;;1.80;;
22388;SDS011;11362;48.102;11.620;2023-05-07T06:40:21;6.57;;;2.07;;
22388;SDS011;11362;48.102;11.620;2023-05-07T06:42:46;6.97;;;1.70;;
22388;SDS011;11362;48.102;11.620;2023-05-07T06:45:11;5.60;;;1.70;;
22388;SDS011;11362;48.102;11.620;2023-05-07T06:47:36;8.20;;;1.90;;
22388;SDS011;11362;48.102;11.620;2023-05-07T06:50:02;10.80;;;1.83;;
22388;SDS011;11362;48.102;11.620;2023-05-07T06:52:27;12.60;;;2.50;;
22388;SDS011;11362;48.102;11.620;2023-05-07T06:54:52;10.20;;;2.17;;
22388;SDS011;11362;48.102;11.620;2023-05-07T06:57:18;8.83;;;3.00;;
22388;SDS011;11362;48.102;11.620;2023-05-07T06:59:43;7.93;;;2.40;;
22388;SDS011;11362;48.102;11.620;2023-05-07T07:02:08;9.10;;;2.83;;
22388;SDS011;11362;48.102;11.620;2023-05-07T07:04:34;7.20;;;2.90;;
22388;SDS011;11362;48.102;11.620;2023-05-07T07:06:59;4.10;;;2.50;;
22388;SDS011;11362;48.102;11.620;2023-05-07T07:09:24;3.03;;;1.83;;
22388;SDS011;11362;48.102;11.620;2023-05-07T07:11:49;4.13;;;2.00;;
22388;SDS011;11362;48.102;11.620;2023-05-07T07:14:15;3.87;;;1.80;;
22388;SDS011;11362;48.102;11.620;2023-05-07T07:16:40;3.13;;;1.83;;
22388;SDS011;11362;48.102;11.620;2023-05-07T07:19:05;3.00;;;2.30;;
22388;SDS011;11362;48.102;11.620;2023-05-07T07:21:30;8.03;;;2.10;;
22388;SDS011;11362;48.102;11.620;2023-05-07T07:23:56;5.43;;;2.27;;
22388;SDS011;11362;48.102;11.620;2023-05-07T07:26:21;4.93;;;2.03;;
22388;SDS011;11362;48.102;11.620;2023-05-07T07:28:46;7.00;;;2.30;;
22388;SDS011;11362;48.102;11.620;2023-05-07T07:31:12;6.63;;;2.20;;
22388;SDS011;11362;48.102;11.620;2023-05-07T07:33:37;4.50;;;2.43;;
22388;SDS011;11362;48.102;11.620;2023-05-07T07:36:03;4.67;;;1.67;;
22388;SDS011;11362;48.102;11.620;2023-05-07T07:38:30;3.03;;;2.10;;
22388;SDS011;11362;48.102;11.620;2023-05-07T07:40:55;5.20;;;2.17;;
22388;SDS011;11362;48.102;11.620;2023-05-07T07:43:20;2.10;;;1.50;;
22388;SDS011;11362;48.102;11.620;2023-05-07T07:45:45;2.47;;;1.73;;
22388;SDS011;11362;48.102;11.620;2023-05-07T07:48:11;2.90;;;2.63;;
22388;SDS011;11362;48.102;11.620;2023-05-07T07:50:36;6.80;;;2.93;;
22388;SDS011;11362;48.102;11.620;2023-05-07T07:53:02;11.50;;;3.10;;
22388;SDS011;11362;48.102;11.620;2023-05-07T07:55:27;3.90;;;2.20;;
22388;SDS011;11362;48.102;11.620;2023-05-07T07:57:53;4.23;;;2.00;;
22388;SDS011;11362;48.102;11.620;2023-05-07T08:00:18;2.67;;;2.10;;
22388;SDS011;11362;48.102;11.620;2023-05-07T08:02:44;2.17;;;1.97;;
22388;SDS011;11362;48.102;11.620;2023-05-07T08:05:09;3.57;;;2.00;;
22388;SDS011;11362;48.102;11.620;2023-05-07T08:07:34;2.33;;;1.83;;
22388;SDS011;11362;48.102;11.620;2023-05-07T08:09:59;4.17;;;2.10;;
22388;SDS011;11362;48.102;11.620;2023-05-07T08:12:25;3.67;;;2.00;;
22388;SDS011;11362;48.102;11.620;2023-05-07T08:14:50;2.20;;;1.90;;
22388;SDS011;11362;48.102;11.620;2023-05-07T08:17:16;3.00;;;1.73;;
22388;SDS011;11362;48.102;11.620;2023-05-07T08:19:41;4.03;;;2.17;;
22388;SDS011;11362;48.102;11.620;2023-05-07T08:22:08;2.20;;;2.00;;
22388;SDS011;11362;48.102;11.620;2023-05-07T08:24:34;2.93;;;2.03;;
22388;SDS011;11362;48.102;11.620;2023-05-07T08:26:59;4.47;;;2.40;;
22388;SDS011;11362;48.102;11.620;2023-05-07T08:29:25;2.17;;;1.97;;
22388;SDS011;11362;48.102;11.620;2023-05-07T08:31:50;2.00;;;1.90;;
22388;SDS011;11362;48.102;11.620;2023-05-07T08:34:15;2.17;;;1.97;;
22388;SDS011;11362;48.102;11.620;2023-05-07T08:36:40;2.70;;;2.13;;
22388;SDS011;11362;48.102;11.620;2023-05-07T08:39:06;2.30;;;2.10;;
22388;SDS011;11362;48.102;11.620;2023-05-07T08:41:31;1.70;;;1.60;;
22388;SDS011;11362;48.102;11.620;2023-05-07T08:43:57;2.10;;;1.93;;
22388;SDS011;11362;48.102;11.620;2023-05-07T08:46:23;3.00;;;2.80;;
22388;SDS011;11362;48.102;11.620;2023-05-07T08:48:51;3.80;;;1.90;;
22388;SDS011;11362;48.102;11.620;2023-05-07T08:51:17;2.70;;;1.90;;
22388;SDS011;11362;48.102;11.620;2023-05-07T08:53:45;2.83;;;2.27;;
22388;SDS011;11362;48.102;11.620;2023-05-07T08:56:11;2.07;;;1.77;;
22388;SDS011;11362;48.102;11.620;2023-05-07T08:58:37;4.47;;;1.90;;
22388;SDS011;11362;48.102;11.620;2023-05-07T09:01:03;2.90;;;2.03;;
22388;SDS011;11362;48.102;11.620;2023-05-07T09:03:32;1.67;;;1.57;;
22388;SDS011;11362;48.102;11.620;2023-05-07T09:05:57;1.83;;;1.50;;
22388;SDS011;11362;48.102;11.620;2023-05-07T09:08:26;2.27;;;2.03;;
22388;SDS011;11362;48.102;11.620;2023-05-07T09:10:52;1.63;;;1.53;;
22388;SDS011;11362;48.102;11.620;2023-05-07T09:13:18;9.90;;;2.23;;
22388;SDS011;11362;48.102;11.620;2023-05-07T09:15:43;5.10;;;2.30;;
22388;SDS011;11362;48.102;11.620;2023-05-07T09:18:08;2.60;;;1.50;;
22388;SDS011;11362;48.102;11.620;2023-05-07T09:20:35;2.30;;;1.90;;
22388;SDS011;11362;48.102;11.620;2023-05-07T09:23:01;1.83;;;1.73;;
22388;SDS011;11362;48.102;11.620;2023-05-07T09:25:30;5.90;;;1.87;;
22388;SDS011;11362;48.102;11.620;2023-05-07T09:27:57;1.60;;;1.50;;
22388;SDS011;11362;48.102;11.620;2023-05-07T09:30:30;1.97;;;1.77;;
22388;SDS011;11362;48.102;11.620;2023-05-07T09:33:01;4.97;;;1.50;;
22388;SDS011;11362;48.102;11.620;2023-05-07T09:35:28;2.30;;;1.70;;
22388;SDS011;11362;48.102;11.620;2023-05-07T09:37:55;2.03;;;1.90;;
22388;SDS011;11362;48.102;11.620;2023-05-07T09:40:23;3.60;;;1.20;;
22388;SDS011;11362;48.102;11.620;2023-05-07T09:42:50;2.53;;;1.53;;
22388;SDS011;11362;48.102;11.620;2023-05-07T09:45:16;12.13;;;2.10;;
22388;SDS011;11362;48.102;11.620;2023-05-07T09:47:46;6.37;;;1.60;;
22388;SDS011;11362;48.102;11.620;2023-05-07T09:50:14;4.20;;;1.60;;
22388;SDS011;11362;48.102;11.620;2023-05-07T09:52:41;3.13;;;1.50;;
22388;SDS011;11362;48.102;11.620;2023-05-07T09:55:08;1.73;;;1.53;;
22388;SDS011;11362;48.102;11.620;2023-05-07T09:57:34;3.10;;;1.70;;
22388;SDS011;11362;48.102;11.620;2023-05-07T10:00:01;1.93;;;1.50;;
22388;SDS011;11362;48.102;11.620;2023-05-07T10:02:27;2.60;;;1.90;;
22388;SDS011;11362;48.102;11.620;2023-05-07T10:04:55;4.10;;;1.47;;
22388;SDS011;11362;48.102;11.620;2023-05-07T10:07:21;3.47;;;1.47;;
22388;SDS011;11362;48.102;11.620;2023-05-07T10:09:47;4.00;;;1.57;;
22388;SDS011;11362;48.102;11.620;2023-05-07T10:12:13;2.27;;;1.50;;
22388;SDS011;11362;48.102;11.620;2023-05-07T10:14:39;2.10;;;1.43;;
22388;SDS011;11362;48.102;11.620;2023-05-07T10:17:05;2.67;;;1.63;;
22388;SDS011;11362;48.102;11.620;2023-05-07T10:19:31;2.93;;;1.33;;
22388;SDS011;11362;48.102;11.620;2023-05-07T10:22:00;1.90;;;1.30;;
22388;SDS011;11362;48.102;11.620;2023-05-07T10:24:31;4.13;;;1.33;;
22388;SDS011;11362;48.102;11.620;2023-05-07T10:26:57;3.33;;;1.40;;
22388;SDS011;11362;48.102;11.620;2023-05-07T10:35:22;2.70;;;1.37;;
22388;SDS011;11362;48.102;11.620;2023-05-07T10:37:51;1.60;;;1.50;;
22388;SDS011;11362;48.102;11.620;2023-05-07T10:40:17;1.47;;;1.30;;
22388;SDS011;11362;48.102;11.620;2023-05-07T10:42:58;1.67;;;1.40;;
22388;SDS011;11362;48.102;11.620;2023-05-07T10:45:25;2.17;;;1.70;;
22388;SDS011;11362;48.102;11.620;2023-05-07T10:50:39;1.87;;;1.23;;
22388;SDS011;11362;48.102;11.620;2023-05-07T10:55:47;1.47;;;1.37;;
22388;SDS011;11362;48.102;11.620;2023-05-07T10:58:22;2.50;;;1.40;;
22388;SDS011;11362;48.102;11.620;2023-05-07T11:00:48;1.50;;;1.37;;
22388;SDS011;11362;48.102;11.620;2023-05-07T11:03:14;1.60;;;1.30;;
22388;SDS011;11362;48.102;11.620;2023-05-07T11:05:39;1.23;;;1.10;;
22388;SDS011;11362;48.102;11.620;2023-05-07T11:08:06;3.30;;;1.30;;
22388;SDS011;11362;48.102;11.620;2023-05-07T11:10:50;2.73;;;1.10;;
22388;SDS011;11362;48.102;11.620;2023-05-07T11:13:16;3.60;;;1.57;;
22388;SDS011;11362;48.102;11.620;2023-05-07T11:15:45;5.17;;;1.53;;
22388;SDS011;11362;48.102;11.620;2023-05-07T11:18:13;5.93;;;2.23;;
22388;SDS011;11362;48.102;11.620;2023-05-07T11:20:44;5.53;;;1.70;;
22388;SDS011;11362;48.102;11.620;2023-05-07T11:26:06;3.03;;;1.47;;
22388;SDS011;11362;48.102;11.620;2023-05-07T11:28:51;1.80;;;1.63;;
22388;SDS011;11362;48.102;11.620;2023-05-07T11:31:20;1.57;;;1.47;;
22388;SDS011;11362;48.102;11.620;2023-05-07T11:33:47;3.47;;;1.97;;
22388;SDS011;11362;48.102;11.620;2023-05-07T11:36:12;1.67;;;1.57;;
22388;SDS011;11362;48.102;11.620;2023-05-07T11:38:38;6.80;;;2.20;;
22388;SDS011;11362;48.102;11.620;2023-05-07T11:41:03;5.13;;;1.80;;
22388;SDS011;11362;48.102;11.620;2023-05-07T11:43:28;4.47;;;1.93;;
22388;SDS011;11362;48.102;11.620;2023-05-07T11:45:54;3.03;;;1.60;;
22388;SDS011;11362;48.102;11.620;2023-05-07T11:48:20;2.40;;;1.77;;
22388;SDS011;11362;48.102;11.620;2023-05-07T11:50:53;5.33;;;2.10;;
22388;SDS011;11362;48.102;11.620;2023-05-07T11:53:34;3.20;;;1.80;;
22388;SDS011;11362;48.102;11.620;2023-05-07T11:56:05;6.07;;;2.37;;
22388;SDS011;11362;48.102;11.620;2023-05-07T11:58:33;6.57;;;2.50;;
22388;SDS011;11362;48.102;11.620;2023-05-07T12:00:59;4.60;;;2.23;;
22388;SDS011;11362;48.102;11.620;2023-05-07T12:03:24;4.63;;;2.30;;
22388;SDS011;11362;48.102;11.620;2023-05-07T12:05:49;5.47;;;2.60;;
22388;SDS011;11362;48.102;11.620;2023-05-07T12:08:15;5.90;;;2.10;;
22388;SDS011;11362;48.102;11.620;2023-05-07T12:10:41;7.70;;;2.43;;
22388;SDS011;11362;48.102;11.620;2023-05-07T12:13:14;3.33;;;2.03;;
22388;SDS011;11362;48.102;11.620;2023-05-07T12:15:46;3.70;;;2.03;;
22388;SDS011;11362;48.102;11.620;2023-05-07T12:18:16;4.40;;;1.93;;
22388;SDS011;11362;48.102;11.620;2023-05-07T12:20:41;5.37;;;2.23;;
22388;SDS011;11362;48.102;11.620;2023-05-07T12:23:07;5.00;;;2.17;;
22388;SDS011;11362;48.102;11.620;2023-05-07T12:25:35;4.90;;;2.40;;
22388;SDS011;11362;48.102;11.620;2023-05-07T12:28:02;5.40;;;2.27;;
22388;SDS011;11362;48.102;11.620;2023-05-07T12:30:28;4.67;;;2.50;;
22388;SDS011;11362;48.102;11.620;2023-05-07T12:32:53;3.63;;;2.10;;
22388;SDS011;11362;48.102;11.620;2023-05-07T12:35:32;2.80;;;2.03;;
22388;SDS011;11362;48.102;11.620;2023-05-07T12:38:02;2.23;;;2.13;;
22388;SDS011;11362;48.102;11.620;2023-05-07T12:40:35;5.50;;;2.13;;
22388;SDS011;11362;48.102;11.620;2023-05-07T12:43:02;6.03;;;1.93;;
22388;SDS011;11362;48.102;11.620;2023-05-07T12:45:27;2.53;;;2.07;;
22388;SDS011;11362;48.102;11.620;2023-05-07T12:47:52;4.40;;;1.80;;
22388;SDS011;11362;48.102;11.620;2023-05-07T12:50:18;2.30;;;2.10;;
22388;SDS011;11362;48.102;11.620;2023-05-07T12:52:52;3.73;;;1.83;;
22388;SDS011;11362;48.102;11.620;2023-05-07T12:55:18;11.40;;;2.37;;
22388;SDS011;11362;48.102;11.620;2023-05-07T12:57:45;2.97;;;2.30;;
22388;SDS011;11362;48.102;11.620;2023-05-07T13:00:13;4.87;;;2.43;;
22388;SDS011;11362;48.102;11.620;2023-05-07T13:02:39;8.80;;;2.93;;
22388;SDS011;11362;48.102;11.620;2023-05-07T13:05:06;10.87;;;3.27;;
22388;SDS011;11362;48.102;11.620;2023-05-07T13:07:32;7.83;;;2.20;;
22388;SDS011;11362;48.102;11.620;2023-05-07T13:09:57;6.97;;;2.03;;
22388;SDS011;11362;48.102;11.620;2023-05-07T13:12:22;4.67;;;2.13;;
22388;SDS011;11362;48.102;11.620;2023-05-07T13:14:48;7.83;;;2.00;;
22388;SDS011;11362;48.102;11.620;2023-05-07T13:17:13;8.17;;;2.50;;
22388;SDS011;11362;48.102;11.620;2023-05-07T13:19:38;7.63;;;2.13;;
22388;SDS011;11362;48.102;11.620;2023-05-07T13:22:04;12.33;;;3.30;;
22388;SDS011;11362;48.102;11.620;2023-05-07T13:24:29;8.90;;;2.90;;
22388;SDS011;11362;48.102;11.620;2023-05-07T13:26:54;12.03;;;2.83;;
22388;SDS011;11362;48.102;11.620;2023-05-07T13:29:19;6.07;;;2.40;;
22388;SDS011;11362;48.102;11.620;2023-05-07T13:31:45;12.50;;;3.23;;
22388;SDS011;11362;48.102;11.620;2023-05-07T13:34:10;11.17;;;2.83;;
22388;SDS011;11362;48.102;11.620;2023-05-07T13:36:35;7.57;;;2.73;;
22388;SDS011;11362;48.102;11.620;2023-05-07T13:39:01;5.47;;;2.17;;
22388;SDS011;11362;48.102;11.620;2023-05-07T13:41:26;12.03;;;3.10;;
22388;SDS011;11362;48.102;11.620;2023-05-07T13:43:51;11.13;;;2.67;;
22388;SDS011;11362;48.102;11.620;2023-05-07T13:46:16;17.23;;;3.00;;
22388;SDS011;11362;48.102;11.620;2023-05-07T13:48:42;8.77;;;2.57;;
22388;SDS011;11362;48.102;11.620;2023-05-07T13:51:07;9.77;;;2.70;;
22388;SDS011;11362;48.102;11.620;2023-05-07T13:53:32;12.60;;;2.57;;
22388;SDS011;11362;48.102;11.620;2023-05-07T13:55:57;10.37;;;2.77;;
22388;SDS011;11362;48.102;11.620;2023-05-07T13:58:23;9.17;;;2.80;;
22388;SDS011;11362;48.102;11.620;2023-05-07T14:00:48;7.57;;;2.73;;
22388;SDS011;11362;48.102;11.620;2023-05-07T14:03:13;7.47;;;2.37;;
22388;SDS011;11362;48.102;11.620;2023-05-07T14:05:39;3.73;;;1.93;;
22388;SDS011;11362;48.102;11.620;2023-05-07T14:08:04;5.40;;;2.47;;
22388;SDS011;11362;48.102;11.620;2023-05-07T14:10:29;6.13;;;2.17;;
22388;SDS011;11362;48.102;11.620;2023-05-07T14:12:54;3.73;;;2.37;;
22388;SDS011;11362;48.102;11.620;2023-05-07T14:15:20;8.50;;;2.73;;
22388;SDS011;11362;48.102;11.620;2023-05-07T14:17:45;4.53;;;1.97;;
22388;SDS011;11362;48.102;11.620;2023-05-07T14:20:11;5.80;;;1.67;;
22388;SDS011;11362;48.102;11.620;2023-05-07T14:22:37;5.23;;;2.30;;
22388;SDS011;11362;48.102;11.620;2023-05-07T14:25:02;5.40;;;2.07;;
22388;SDS011;11362;48.102;11.620;2023-05-07T14:27:28;3.67;;;2.17;;
22388;SDS011;11362;48.102;11.620;2023-05-07T14:29:53;5.53;;;1.90;;
22388;SDS011;11362;48.102;11.620;2023-05-07T14:32:18;2.87;;;1.77;;
22388;SDS011;11362;48.102;11.620;2023-05-07T14:34:44;6.93;;;1.83;;
22388;SDS011;11362;48.102;11.620;2023-05-07T14:37:10;3.97;;;1.97;;
22388;SDS011;11362;48.102;11.620;2023-05-07T14:39:35;3.47;;;1.70;;
22388;SDS011;11362;48.102;11.620;2023-05-07T14:42:01;4.33;;;1.63;;